| time (UTC) | temp F | wind direction | speed MPH | gust MPH | rain 1hr in | rain 24hr in | rain mn in | humidity % | barometer mb |
| 20260508173331 | 72 | 40 | 0.0 | 2.0 | 0.00 | 0.00 | 0.00 | 36 | 1025.0 |
| 20260508172826 | 70 | 27 | 2.0 | 5.0 | 0.00 | 0.00 | 0.00 | 39 | 1025.2 |
| 20260508172324 | 70 | 342 | 1.0 | 5.0 | 0.00 | 0.00 | 0.00 | 39 | 1025.1 |
| 20260508171820 | 70 | 125 | 3.0 | 5.0 | 0.00 | 0.00 | 0.00 | 37 | 1025.5 |
| 20260508171316 | 68 | 73 | 0.0 | 2.0 | 0.00 | 0.00 | 0.00 | 38 | 1025.7 |
| 20260508170813 | 68 | 335 | 5.0 | 7.0 | 0.00 | 0.00 | 0.00 | 40 | 1025.7 |
| 20260508170312 | 69 | 32 | 3.0 | 5.0 | 0.00 | 0.00 | 0.00 | 35 | 1025.9 |
| 20260508165808 | 68 | 73 | 0.0 | 5.0 | 0.00 | 0.00 | 0.00 | 38 | 1025.9 |
| 20260508165307 | 68 | 65 | 0.0 | 3.0 | 0.00 | 0.00 | 0.00 | 37 | 1026.1 |
| 20260508164801 | 67 | 305 | 3.0 | 9.0 | 0.00 | 0.00 | 0.00 | 38 | 1026.3 |
| 20260508164258 | 68 | 240 | 1.0 | 7.0 | 0.00 | 0.00 | 0.00 | 39 | 1026.6 |
| 20260508163756 | 69 | 38 | 1.0 | 5.0 | 0.00 | 0.00 | 0.00 | 40 | 1026.4 |
| 20260508163254 | 67 | 44 | 0.0 | 5.0 | 0.00 | 0.00 | 0.00 | 42 | 1026.7 |
| 20260508162749 | 66 | 329 | 3.0 | 7.0 | 0.00 | 0.00 | 0.00 | 42 | 1026.9 |
| 20260508162246 | 67 | 79 | 2.0 | 3.0 | 0.00 | 0.00 | 0.00 | 43 | 1026.8 |
| 20260508161743 | 69 | 107 | 2.0 | 6.0 | 0.00 | 0.00 | 0.00 | 44 | 1026.8 |
| 20260508161240 | 66 | 61 | 2.0 | 11.0 | 0.00 | 0.00 | 0.00 | 46 | 1026.9 |
| 20260508160738 | 67 | 59 | 1.0 | 3.0 | 0.00 | 0.00 | 0.00 | 43 | 1027.0 |
| 20260508160236 | 68 | 317 | 4.0 | 5.0 | 0.00 | 0.00 | 0.00 | 44 | 1027.1 |
| 20260508155726 | 66 | 105 | 3.0 | 5.0 | 0.00 | 0.00 | 0.00 | 45 | 1027.5 |
| 20260508155224 | 66 | 92 | 1.0 | 3.0 | 0.00 | 0.00 | 0.00 | 47 | 1027.5 |
| 20260508154720 | 66 | 37 | 5.0 | 7.0 | 0.00 | 0.00 | 0.00 | 47 | 1027.2 |
| 20260508154218 | 66 | 148 | 1.0 | 2.0 | 0.00 | 0.00 | 0.00 | 53 | 1027.3 |
| 20260508153714 | 65 | 61 | 0.0 | 2.0 | 0.00 | 0.00 | 0.00 | 42 | 1027.5 |
| 20260508153211 | 65 | 119 | 3.0 | 3.0 | 0.00 | 0.00 | 0.00 | 48 | 1027.4 |
| 20260508152707 | 66 | 24 | 1.0 | 3.0 | 0.00 | 0.00 | 0.00 | 45 | 1027.5 |
| 20260508152203 | 65 | 309 | 1.0 | 2.0 | 0.00 | 0.00 | 0.00 | 46 | 1027.4 |
| 20260508151700 | 63 | 51 | 0.0 | 3.0 | 0.00 | 0.00 | 0.00 | 52 | 1027.7 |
| 20260508151157 | 63 | 335 | 2.0 | 5.0 | 0.00 | 0.00 | 0.00 | 53 | 1027.5 |
| 20260508150654 | 63 | 349 | 0.0 | 2.0 | 0.00 | 0.00 | 0.00 | 66 | 1027.4 |
| 20260508150151 | 61 | 102 | 1.0 | 3.0 | 0.00 | 0.00 | 0.00 | 72 | 1027.3 |
| 20260508145646 | 62 | 199 | 2.0 | 3.0 | 0.00 | 0.00 | 0.00 | 70 | 1027.4 |
| 20260508145143 | 60 | 1 | 1.0 | 2.0 | 0.00 | 0.00 | 0.00 | 80 | 1027.5 |
| 20260508144641 | 59 | 117 | 1.0 | 3.0 | 0.00 | 0.00 | 0.00 | 80 | 1027.5 |
| 20260508144138 | 59 | 8 | 1.0 | 2.0 | 0.00 | 0.00 | 0.00 | 71 | 1027.6 |
| 20260508143635 | 58 | 357 | 2.0 | 2.0 | 0.00 | 0.00 | 0.00 | 72 | 1027.7 |
| 20260508143132 | 59 | 35 | 1.0 | 2.0 | 0.00 | 0.00 | 0.00 | 74 | 1027.6 |
| 20260508142628 | 58 | 129 | 0.0 | 1.0 | 0.00 | 0.00 | 0.00 | 78 | 1027.6 |
| 20260508142125 | 58 | 116 | 2.0 | 3.0 | 0.00 | 0.00 | 0.00 | 80 | 1027.7 |
| 20260508141622 | 56 | 76 | 0.0 | 2.0 | 0.00 | 0.00 | 0.00 | 83 | 1027.5 |
| 20260508141120 | 57 | 171 | 2.0 | 2.0 | 0.00 | 0.00 | 0.00 | 81 | 1027.6 |
| 20260508140617 | 55 | 107 | 2.0 | 2.0 | 0.00 | 0.00 | 0.00 | 82 | 1027.9 |
| 20260508140114 | 54 | 79 | 1.0 | 2.0 | 0.00 | 0.00 | 0.00 | 82 | 1027.7 |
| 20260508135608 | 52 | 348 | 1.0 | 2.0 | 0.00 | 0.00 | 0.00 | 84 | 1027.8 |
| 20260508135105 | 51 | 357 | 1.0 | 5.0 | 0.00 | 0.00 | 0.00 | 84 | 1027.9 |
| 20260508134602 | 52 | 58 | 0.0 | 3.0 | 0.00 | 0.00 | 0.00 | 86 | 1027.8 |
| 20260508134059 | 52 | 60 | 0.0 | 0.0 | 0.00 | 0.00 | 0.00 | 86 | 1027.8 |
| 20260508133555 | 52 | 33 | 0.0 | 0.0 | 0.00 | 0.00 | 0.00 | 86 | 1028.0 |
| 20260508133053 | 48 | 51 | 0.0 | 2.0 | 0.00 | 0.00 | 0.00 | 92 | 1028.1 |
| 20260508132551 | 47 | 334 | 2.0 | 3.0 | 0.00 | 0.00 | 0.00 | 93 | 1028.0 |
| 20260508132048 | 47 | 321 | 2.0 | 3.0 | 0.00 | 0.00 | 0.00 | 93 | 1027.8 |
| 20260508131543 | 47 | 358 | 2.0 | 3.0 | 0.00 | 0.00 | 0.00 | 93 | 1028.0 |
| 20260508131040 | 46 | 4 | 3.0 | 3.0 | 0.00 | 0.00 | 0.00 | 95 | 1027.9 |
| 20260508130537 | 45 | 293 | 3.0 | 5.0 | 0.00 | 0.00 | 0.00 | 96 | 1028.1 |
| 20260508130033 | 45 | 18 | 1.0 | 3.0 | 0.00 | 0.00 | 0.00 | 97 | 1028.0 |
| 20260508125529 | 44 | 7 | 1.0 | 3.0 | 0.00 | 0.00 | 0.00 | 98 | 1028.0 |
| 20260508125027 | 44 | 5 | 1.0 | 2.0 | 0.00 | 0.00 | 0.00 | 98 | 1028.0 |
| 20260508124524 | 44 | 20 | 0.0 | 3.0 | 0.00 | 0.00 | 0.00 | 99 | 1028.1 |
| 20260508124021 | 43 | 28 | 0.0 | 2.0 | 0.00 | 0.00 | 0.00 | 99 | 1028.1 |
| 20260508123520 | 43 | 307 | 3.0 | 5.0 | 0.00 | 0.00 | 0.00 | 99 | 1028.2 |
| 20260508123016 | 43 | 6 | 1.0 | 1.0 | 0.00 | 0.00 | 0.00 | 99 | 1028.1 |
| 20260508122513 | 43 | 6 | 2.0 | 5.0 | 0.00 | 0.00 | 0.00 | 99 | 1028.4 |
| 20260508122010 | 42 | 37 | 0.0 | 2.0 | 0.00 | 0.00 | 0.00 | 99 | 1028.2 |
| 20260508121508 | 42 | 1 | 1.0 | 3.0 | 0.00 | 0.00 | 0.00 | 99 | 1028.2 |
| 20260508121006 | 42 | 0 | 0.0 | 1.0 | 0.00 | 0.00 | 0.00 | 99 | 1028.1 |
| 20260508120503 | 42 | 1 | 0.0 | 1.0 | 0.00 | 0.00 | 0.00 | 99 | 1028.1 |
| 20260508120001 | 42 | 354 | 0.0 | 0.0 | 0.00 | 0.00 | 0.00 | 99 | 1028.1 |
| 20260508115459 | 42 | 37 | 0.0 | 0.0 | 0.00 | 0.00 | 0.00 | 99 | 1027.9 |
| 20260508114955 | 42 | 27 | 0.0 | 0.0 | 0.00 | 0.00 | 0.00 | 99 | 1027.8 |
| 20260508114452 | 42 | 35 | 0.0 | 0.0 | 0.00 | 0.00 | 0.00 | 99 | 1027.7 |
| 20260508113948 | 42 | 31 | 0.0 | 0.0 | 0.00 | 0.00 | 0.00 | 99 | 1027.7 |
| 20260508113446 | 42 | 27 | 0.0 | 1.0 | 0.00 | 0.00 | 0.00 | 99 | 1027.8 |
| 20260508112943 | 42 | 10 | 0.0 | 1.0 | 0.00 | 0.00 | 0.00 | 99 | 1027.7 |
| 20260508112440 | 42 | 62 | 0.0 | 0.0 | 0.00 | 0.00 | 0.00 | 99 | 1027.6 |
| 20260508111936 | 41 | 62 | 0.0 | 0.0 | 0.00 | 0.00 | 0.00 | 99 | 1027.6 |
| 20260508111433 | 41 | 64 | 0.0 | 0.0 | 0.00 | 0.00 | 0.00 | 99 | 1027.6 |
| 20260508110930 | 41 | 65 | 0.0 | 0.0 | 0.00 | 0.00 | 0.00 | 99 | 1027.4 |
| 20260508110428 | 41 | 58 | 0.0 | 0.0 | 0.00 | 0.00 | 0.00 | 99 | 1027.4 |
| 20260508105928 | 41 | 68 | 0.0 | 0.0 | 0.00 | 0.00 | 0.00 | 99 | 1027.4 |
| 20260508105425 | 41 | 71 | 0.0 | 0.0 | 0.00 | 0.00 | 0.00 | 99 | 1027.3 |
| 20260508104922 | 40 | 85 | 0.0 | 1.0 | 0.00 | 0.00 | 0.00 | 99 | 1027.4 |
| 20260508104419 | 40 | 69 | 0.0 | 0.0 | 0.00 | 0.00 | 0.00 | 99 | 1027.3 |
| 20260508103916 | 40 | 78 | 0.0 | 0.0 | 0.00 | 0.00 | 0.00 | 99 | 1027.2 |
| 20260508103413 | 40 | 72 | 0.0 | 1.0 | 0.00 | 0.00 | 0.00 | 99 | 1027.2 |
| 20260508102910 | 40 | 69 | 0.0 | 0.0 | 0.00 | 0.00 | 0.00 | 99 | 1027.2 |
| 20260508102409 | 41 | 74 | 0.0 | 0.0 | 0.00 | 0.00 | 0.00 | 99 | 1027.0 |
| 20260508101905 | 40 | 66 | 0.0 | 0.0 | 0.00 | 0.00 | 0.00 | 99 | 1027.3 |
| 20260508101403 | 40 | 67 | 0.0 | 0.0 | 0.00 | 0.00 | 0.00 | 99 | 1027.3 |
| 20260508100900 | 40 | 70 | 0.0 | 0.0 | 0.00 | 0.00 | 0.00 | 99 | 1027.3 |
| 20260508100359 | 40 | 61 | 0.0 | 0.0 | 0.00 | 0.00 | 0.00 | 99 | 1027.2 |
| 20260508095854 | 40 | 63 | 0.0 | 1.0 | 0.00 | 0.00 | 0.00 | 99 | 1027.0 |
| 20260508095352 | 40 | 64 | 0.0 | 1.0 | 0.00 | 0.00 | 0.00 | 99 | 1027.1 |
| 20260508094848 | 40 | 62 | 0.0 | 0.0 | 0.00 | 0.00 | 0.00 | 99 | 1027.2 |
| 20260508094345 | 40 | 75 | 1.0 | 2.0 | 0.00 | 0.00 | 0.00 | 99 | 1027.0 |
| 20260508093842 | 40 | 41 | 0.0 | 0.0 | 0.00 | 0.00 | 0.00 | 99 | 1026.9 |
| 20260508093340 | 40 | 41 | 0.0 | 0.0 | 0.00 | 0.00 | 0.00 | 99 | 1027.1 |
| 20260508092837 | 40 | 67 | 0.0 | 0.0 | 0.00 | 0.00 | 0.00 | 99 | 1027.0 |
| 20260508092335 | 40 | 70 | 1.0 | 2.0 | 0.00 | 0.00 | 0.00 | 99 | 1027.1 |
| 20260508091833 | 40 | 72 | 0.0 | 1.0 | 0.00 | 0.00 | 0.00 | 99 | 1027.0 |
| 20260508091329 | 40 | 76 | 0.0 | 2.0 | 0.00 | 0.00 | 0.00 | 99 | 1026.9 |
| 20260508090827 | 40 | 70 | 0.0 | 1.0 | 0.00 | 0.00 | 0.00 | 99 | 1027.1 |
| 20260508090325 | 39 | 85 | 2.0 | 2.0 | 0.00 | 0.00 | 0.00 | 99 | 1026.8 |
| 20260508085820 | 39 | 62 | 0.0 | 1.0 | 0.00 | 0.00 | 0.00 | 99 | 1026.9 |
| 20260508085318 | 39 | 77 | 0.0 | 2.0 | 0.00 | 0.00 | 0.00 | 99 | 1026.7 |
| 20260508084814 | 39 | 83 | 2.0 | 3.0 | 0.00 | 0.00 | 0.00 | 99 | 1026.7 |
| 20260508084311 | 39 | 76 | 1.0 | 2.0 | 0.00 | 0.00 | 0.00 | 99 | 1026.9 |
| 20260508083809 | 39 | 77 | 0.0 | 0.0 | 0.00 | 0.00 | 0.00 | 99 | 1026.7 |
| 20260508083306 | 39 | 64 | 0.0 | 1.0 | 0.00 | 0.00 | 0.00 | 99 | 1026.7 |
| 20260508082805 | 39 | 69 | 0.0 | 0.0 | 0.00 | 0.00 | 0.00 | 99 | 1026.8 |
| 20260508082306 | 39 | 48 | 0.0 | 0.0 | 0.00 | 0.00 | 0.00 | 99 | 1026.8 |
| 20260508081801 | 39 | 73 | 0.0 | 1.0 | 0.00 | 0.00 | 0.00 | 99 | 1026.6 |
| 20260508081257 | 39 | 63 | 0.0 | 2.0 | 0.00 | 0.00 | 0.00 | 99 | 1026.7 |
| 20260508080754 | 39 | 51 | 0.0 | 0.0 | 0.00 | 0.00 | 0.00 | 99 | 1026.6 |
| 20260508080253 | 39 | 59 | 0.0 | 0.0 | 0.00 | 0.00 | 0.00 | 99 | 1026.8 |
| 20260508075748 | 39 | 70 | 0.0 | 0.0 | 0.00 | 0.00 | 0.00 | 99 | 1026.4 |
| 20260508075245 | 39 | 63 | 0.0 | 0.0 | 0.00 | 0.00 | 0.00 | 99 | 1026.7 |
| 20260508074743 | 39 | 70 | 0.0 | 0.0 | 0.00 | 0.00 | 0.00 | 99 | 1026.4 |
| 20260508074240 | 39 | 66 | 0.0 | 0.0 | 0.00 | 0.00 | 0.00 | 99 | 1026.6 |
| 20260508073737 | 39 | 74 | 0.0 | 0.0 | 0.00 | 0.00 | 0.00 | 99 | 1026.4 |
| 20260508073235 | 39 | 74 | 0.0 | 0.0 | 0.00 | 0.00 | 0.00 | 99 | 1026.4 |
| 20260508072731 | 39 | 72 | 0.0 | 0.0 | 0.00 | 0.00 | 0.00 | 99 | 1026.7 |
| 20260508072228 | 39 | 72 | 0.0 | 0.0 | 0.00 | 0.00 | 0.00 | 99 | 1026.4 |
| 20260508071725 | 39 | 72 | 0.0 | 0.0 | 0.00 | 0.00 | 0.00 | 99 | 1026.4 |
| 20260508071224 | 38 | 21 | 0.0 | 0.0 | 0.00 | 0.00 | 0.00 | 99 | 1026.6 |
| 20260508070721 | 38 | 21 | 0.0 | 0.0 | 0.00 | 0.00 | 0.00 | 99 | 1026.6 |
| 20260508070220 | 38 | 21 | 0.0 | 0.0 | 0.00 | 0.00 | 0.00 | 99 | 1026.6 |
| 20260508065716 | 38 | 20 | 0.0 | 0.0 | 0.00 | 0.00 | 0.00 | 99 | 1026.3 |
| 20260508065214 | 38 | 20 | 0.0 | 0.0 | 0.00 | 0.00 | 0.00 | 99 | 1026.4 |
| 20260508064711 | 38 | 20 | 0.0 | 0.0 | 0.00 | 0.00 | 0.00 | 99 | 1026.4 |
| 20260508064210 | 38 | 20 | 0.0 | 0.0 | 0.00 | 0.00 | 0.00 | 99 | 1026.4 |
| 20260508063707 | 38 | 20 | 0.0 | 0.0 | 0.00 | 0.00 | 0.00 | 99 | 1026.6 |
| 20260508063204 | 39 | 20 | 0.0 | 0.0 | 0.00 | 0.00 | 0.00 | 99 | 1026.4 |
| 20260508062702 | 39 | 20 | 0.0 | 0.0 | 0.00 | 0.00 | 0.00 | 99 | 1026.7 |
| 20260508062159 | 39 | 20 | 0.0 | 0.0 | 0.00 | 0.00 | 0.00 | 99 | 1026.4 |
| 20260508061655 | 39 | 20 | 0.0 | 0.0 | 0.00 | 0.00 | 0.00 | 99 | 1026.7 |
| 20260508061153 | 39 | 20 | 0.0 | 0.0 | 0.00 | 0.00 | 0.00 | 99 | 1026.6 |
| 20260508060649 | 39 | 20 | 0.0 | 0.0 | 0.00 | 0.00 | 0.00 | 99 | 1026.4 |
| 20260508060147 | 39 | 20 | 0.0 | 0.0 | 0.00 | 0.00 | 0.00 | 99 | 1026.7 |
| 20260508055642 | 39 | 20 | 0.0 | 0.0 | 0.00 | 0.00 | 0.00 | 99 | 1026.6 |
| 20260508055139 | 39 | 20 | 0.0 | 0.0 | 0.00 | 0.00 | 0.00 | 99 | 1027.0 |
| 20260508054636 | 39 | 20 | 0.0 | 0.0 | 0.00 | 0.00 | 0.00 | 99 | 1027.0 |
| 20260508054133 | 40 | 20 | 0.0 | 0.0 | 0.00 | 0.00 | 0.00 | 99 | 1026.7 |
| 20260508053630 | 40 | 20 | 0.0 | 0.0 | 0.00 | 0.00 | 0.00 | 99 | 1026.6 |
| 20260508053128 | 40 | 20 | 0.0 | 0.0 | 0.00 | 0.00 | 0.00 | 99 | 1026.7 |
| 20260508052625 | 40 | 20 | 0.0 | 0.0 | 0.00 | 0.00 | 0.00 | 99 | 1026.8 |
| 20260508052122 | 41 | 20 | 0.0 | 0.0 | 0.00 | 0.00 | 0.00 | 99 | 1026.7 |
| 20260508051618 | 41 | 20 | 0.0 | 0.0 | 0.00 | 0.00 | 0.00 | 99 | 1026.8 |
| 20260508051113 | 41 | 20 | 0.0 | 0.0 | 0.00 | 0.00 | 0.00 | 99 | 1026.6 |
| 20260508050610 | 40 | 20 | 0.0 | 0.0 | 0.00 | 0.00 | 0.00 | 99 | 1026.6 |
| 20260508050108 | 40 | 20 | 0.0 | 0.0 | 0.00 | 0.00 | 0.00 | 99 | 1026.4 |
| 20260508045603 | 40 | 20 | 0.0 | 0.0 | 0.00 | 0.00 | 0.00 | 99 | 1026.4 |
| 20260508045102 | 41 | 20 | 0.0 | 0.0 | 0.00 | 0.00 | 0.00 | 99 | 1026.2 |
| 20260508044559 | 41 | 20 | 0.0 | 0.0 | 0.00 | 0.00 | 0.00 | 99 | 1026.2 |
| 20260508044054 | 41 | 20 | 0.0 | 0.0 | 0.00 | 0.00 | 0.00 | 99 | 1026.1 |
| 20260508043551 | 41 | 20 | 0.0 | 0.0 | 0.00 | 0.00 | 0.00 | 99 | 1026.1 |
| 20260508043049 | 41 | 20 | 0.0 | 0.0 | 0.00 | 0.00 | 0.00 | 99 | 1026.0 |
| 20260508042545 | 41 | 20 | 0.0 | 0.0 | 0.00 | 0.00 | 0.00 | 99 | 1026.2 |
| 20260508042043 | 41 | 20 | 0.0 | 0.0 | 0.00 | 0.00 | 0.00 | 99 | 1025.9 |
| 20260508041539 | 41 | 20 | 0.0 | 0.0 | 0.00 | 0.00 | 0.00 | 99 | 1026.0 |
| 20260508041035 | 42 | 20 | 0.0 | 0.0 | 0.00 | 0.00 | 0.00 | 99 | 1025.8 |
| 20260508040532 | 42 | 20 | 0.0 | 0.0 | 0.00 | 0.00 | 0.00 | 99 | 1025.8 |
| 20260508040030 | 42 | 20 | 0.0 | 0.0 | 0.00 | 0.02 | 0.02 | 99 | 1025.8 |
| 20260508035527 | 42 | 20 | 0.0 | 0.0 | 0.00 | 0.02 | 0.02 | 99 | 1026.0 |
| 20260508035024 | 42 | 20 | 0.0 | 0.0 | 0.00 | 0.02 | 0.02 | 99 | 1026.0 |
| 20260508034521 | 42 | 20 | 0.0 | 0.0 | 0.00 | 0.02 | 0.02 | 99 | 1025.8 |
| 20260508034018 | 42 | 20 | 0.0 | 0.0 | 0.00 | 0.02 | 0.02 | 99 | 1025.9 |
| 20260508033516 | 42 | 20 | 0.0 | 0.0 | 0.00 | 0.02 | 0.02 | 99 | 1025.9 |
| 20260508033014 | 42 | 20 | 0.0 | 0.0 | 0.00 | 0.02 | 0.02 | 99 | 1025.8 |
| 20260508032510 | 43 | 19 | 0.0 | 0.0 | 0.00 | 0.02 | 0.02 | 99 | 1025.9 |
| 20260508032008 | 43 | 19 | 0.0 | 0.0 | 0.00 | 0.02 | 0.02 | 99 | 1025.8 |
| 20260508031505 | 43 | 20 | 0.0 | 0.0 | 0.00 | 0.02 | 0.02 | 99 | 1025.7 |
| 20260508030959 | 43 | 20 | 0.0 | 0.0 | 0.00 | 0.02 | 0.02 | 99 | 1025.7 |
| 20260508030457 | 44 | 20 | 0.0 | 0.0 | 0.00 | 0.02 | 0.02 | 99 | 1025.8 |
| 20260508025954 | 44 | 19 | 0.0 | 0.0 | 0.00 | 0.02 | 0.02 | 99 | 1025.9 |
| 20260508025450 | 44 | 20 | 0.0 | 0.0 | 0.00 | 0.02 | 0.02 | 99 | 1025.8 |
| 20260508024948 | 44 | 20 | 0.0 | 0.0 | 0.00 | 0.02 | 0.02 | 98 | 1025.6 |
| 20260508024444 | 44 | 20 | 0.0 | 0.0 | 0.00 | 0.02 | 0.02 | 98 | 1025.5 |
| 20260508023941 | 45 | 20 | 0.0 | 0.0 | 0.00 | 0.02 | 0.02 | 98 | 1025.4 |
| 20260508023437 | 45 | 20 | 0.0 | 0.0 | 0.00 | 0.02 | 0.02 | 98 | 1025.4 |
| 20260508022935 | 45 | 20 | 0.0 | 0.0 | 0.00 | 0.02 | 0.02 | 98 | 1025.3 |
| 20260508022430 | 45 | 19 | 0.0 | 0.0 | 0.00 | 0.02 | 0.02 | 98 | 1025.2 |
| 20260508021927 | 45 | 19 | 0.0 | 0.0 | 0.00 | 0.02 | 0.02 | 97 | 1025.2 |
| 20260508021424 | 45 | 20 | 0.0 | 0.0 | 0.00 | 0.02 | 0.02 | 97 | 1025.2 |
| 20260508020919 | 46 | 19 | 0.0 | 0.0 | 0.00 | 0.02 | 0.02 | 97 | 1024.9 |
| 20260508020418 | 46 | 20 | 0.0 | 0.0 | 0.00 | 0.02 | 0.02 | 96 | 1024.8 |
| 20260508015914 | 46 | 20 | 0.0 | 0.0 | 0.00 | 0.02 | 0.02 | 96 | 1024.9 |
| 20260508015412 | 47 | 20 | 0.0 | 0.0 | 0.00 | 0.02 | 0.02 | 96 | 1024.7 |
| 20260508014908 | 47 | 20 | 0.0 | 0.0 | 0.00 | 0.02 | 0.02 | 96 | 1024.6 |
| 20260508014406 | 47 | 20 | 0.0 | 0.0 | 0.00 | 0.02 | 0.02 | 96 | 1024.7 |
| 20260508013902 | 47 | 20 | 0.0 | 0.0 | 0.00 | 0.02 | 0.02 | 95 | 1024.5 |
| 20260508013357 | 48 | 20 | 0.0 | 0.0 | 0.00 | 0.02 | 0.02 | 95 | 1024.5 |
| 20260508012855 | 48 | 20 | 0.0 | 0.0 | 0.00 | 0.02 | 0.02 | 94 | 1024.3 |
| 20260508012352 | 48 | 20 | 0.0 | 0.0 | 0.00 | 0.02 | 0.02 | 94 | 1024.3 |
| 20260508011850 | 49 | 20 | 0.0 | 0.0 | 0.00 | 0.02 | 0.02 | 93 | 1024.0 |
| 20260508011348 | 49 | 19 | 0.0 | 0.0 | 0.00 | 0.02 | 0.02 | 93 | 1024.0 |
| 20260508010844 | 49 | 20 | 0.0 | 0.0 | 0.00 | 0.02 | 0.02 | 92 | 1023.9 |
| 20260508010342 | 49 | 19 | 0.0 | 0.0 | 0.00 | 0.02 | 0.02 | 92 | 1024.0 |
| 20260508005839 | 50 | 19 | 0.0 | 0.0 | 0.00 | 0.02 | 0.02 | 91 | 1023.8 |
| 20260508005335 | 50 | 19 | 0.0 | 0.0 | 0.00 | 0.02 | 0.02 | 91 | 1023.9 |
| 20260508004831 | 50 | 19 | 0.0 | 1.0 | 0.00 | 0.02 | 0.02 | 90 | 1023.9 |
| 20260508004328 | 51 | 19 | 0.0 | 0.0 | 0.00 | 0.02 | 0.02 | 89 | 1023.8 |
| 20260508003824 | 51 | 19 | 0.0 | 1.0 | 0.00 | 0.02 | 0.02 | 88 | 1023.7 |
| 20260508003322 | 51 | 19 | 0.0 | 0.0 | 0.00 | 0.02 | 0.02 | 88 | 1023.6 |
| 20260508002819 | 52 | 19 | 0.0 | 0.0 | 0.00 | 0.02 | 0.02 | 87 | 1023.7 |
| 20260508002315 | 52 | 19 | 0.0 | 0.0 | 0.00 | 0.02 | 0.02 | 86 | 1023.8 |
| 20260508001811 | 53 | 19 | 0.0 | 1.0 | 0.00 | 0.02 | 0.02 | 85 | 1023.5 |
| 20260508001308 | 53 | 19 | 0.0 | 0.0 | 0.00 | 0.02 | 0.02 | 84 | 1023.6 |
| 20260508000803 | 54 | 19 | 0.0 | 0.0 | 0.00 | 0.02 | 0.02 | 83 | 1023.3 |
| 20260508000301 | 54 | 18 | 0.0 | 1.0 | 0.00 | 0.02 | 0.02 | 83 | 1023.2 |
| 20260507235757 | 55 | 18 | 0.0 | 0.0 | 0.00 | 0.02 | 0.02 | 81 | 1023.1 |
| 20260507235255 | 55 | 18 | 0.0 | 0.0 | 0.00 | 0.02 | 0.02 | 80 | 1023.1 |
| 20260507234751 | 55 | 18 | 0.0 | 0.0 | 0.00 | 0.02 | 0.02 | 80 | 1023.0 |
| 20260507234248 | 56 | 18 | 0.0 | 0.0 | 0.00 | 0.02 | 0.02 | 80 | 1022.9 |
| 20260507233744 | 57 | 18 | 0.0 | 0.0 | 0.00 | 0.02 | 0.02 | 78 | 1022.7 |
| 20260507233242 | 57 | 18 | 0.0 | 1.0 | 0.00 | 0.02 | 0.02 | 77 | 1022.9 |
| 20260507232740 | 57 | 19 | 0.0 | 0.0 | 0.00 | 0.02 | 0.02 | 73 | 1022.8 |
| 20260507232236 | 58 | 18 | 0.0 | 0.0 | 0.00 | 0.02 | 0.02 | 71 | 1022.7 |
| 20260507231733 | 58 | 18 | 0.0 | 0.0 | 0.00 | 0.02 | 0.02 | 70 | 1022.9 |
| 20260507231230 | 59 | 19 | 1.0 | 1.0 | 0.00 | 0.02 | 0.02 | 71 | 1022.8 |
| 20260507230726 | 61 | 6 | 1.0 | 1.0 | 0.00 | 0.02 | 0.02 | 66 | 1022.7 |
| 20260507230224 | 61 | 88 | 1.0 | 2.0 | 0.00 | 0.02 | 0.02 | 56 | 1022.7 |
| 20260507225723 | 61 | 118 | 3.0 | 3.0 | 0.00 | 0.02 | 0.02 | 63 | 1022.9 |
| 20260507225220 | 62 | 107 | 2.0 | 2.0 | 0.00 | 0.02 | 0.02 | 62 | 1022.7 |
| 20260507224716 | 62 | 114 | 5.0 | 6.0 | 0.00 | 0.02 | 0.02 | 61 | 1022.4 |
| 20260507224213 | 63 | 84 | 0.0 | 2.0 | 0.00 | 0.02 | 0.02 | 53 | 1022.5 |
| 20260507223709 | 63 | 56 | 1.0 | 5.0 | 0.00 | 0.02 | 0.02 | 52 | 1022.5 |
| 20260507223206 | 63 | 87 | 0.0 | 3.0 | 0.00 | 0.02 | 0.02 | 52 | 1022.5 |
| 20260507222703 | 64 | 142 | 1.0 | 5.0 | 0.00 | 0.02 | 0.02 | 52 | 1022.5 |
| 20260507222159 | 64 | 110 | 4.0 | 6.0 | 0.00 | 0.02 | 0.02 | 54 | 1022.3 |
| 20260507221656 | 65 | 145 | 3.0 | 6.0 | 0.00 | 0.02 | 0.02 | 51 | 1022.5 |
| 20260507221152 | 65 | 76 | 2.0 | 6.0 | 0.00 | 0.02 | 0.02 | 52 | 1022.4 |
| 20260507220649 | 66 | 143 | 1.0 | 5.0 | 0.00 | 0.02 | 0.02 | 52 | 1022.3 |
| 20260507220147 | 66 | 73 | 3.0 | 3.0 | 0.00 | 0.02 | 0.02 | 51 | 1022.3 |
| 20260507215643 | 66 | 6 | 2.0 | 3.0 | 0.00 | 0.02 | 0.02 | 56 | 1022.1 |
| 20260507215140 | 66 | 24 | 1.0 | 2.0 | 0.00 | 0.02 | 0.02 | 63 | 1022.2 |
| 20260507214637 | 64 | 319 | 1.0 | 2.0 | 0.00 | 0.02 | 0.02 | 63 | 1022.1 |
| 20260507214134 | 63 | 345 | 1.0 | 2.0 | 0.00 | 0.02 | 0.02 | 66 | 1021.9 |
| 20260507213630 | 61 | 105 | 1.0 | 1.0 | 0.00 | 0.02 | 0.02 | 71 | 1021.9 |
| 20260507213127 | 61 | 106 | 1.0 | 2.0 | 0.00 | 0.02 | 0.02 | 71 | 1022.2 |
| 20260507212623 | 62 | 146 | 5.0 | 5.0 | 0.00 | 0.02 | 0.02 | 70 | 1021.9 |
| 20260507212120 | 64 | 141 | 3.0 | 5.0 | 0.00 | 0.02 | 0.02 | 63 | 1021.9 |
| 20260507211617 | 63 | 86 | 1.0 | 2.0 | 0.00 | 0.02 | 0.02 | 66 | 1022.1 |
| 20260507211113 | 63 | 105 | 2.0 | 3.0 | 0.00 | 0.02 | 0.02 | 71 | 1021.8 |
| 20260507210611 | 64 | 203 | 1.0 | 5.0 | 0.00 | 0.02 | 0.02 | 61 | 1021.8 |
| 20260507210107 | 63 | 69 | 0.0 | 1.0 | 0.00 | 0.02 | 0.02 | 64 | 1021.9 |
| 20260507205603 | 64 | 39 | 0.0 | 1.0 | 0.00 | 0.02 | 0.02 | 61 | 1021.7 |
| 20260507205100 | 67 | 354 | 4.0 | 6.0 | 0.00 | 0.02 | 0.02 | 57 | 1021.7 |
| 20260507204556 | 66 | 30 | 0.0 | 5.0 | 0.00 | 0.02 | 0.02 | 56 | 1021.7 |
| 20260507204054 | 66 | 209 | 3.0 | 5.0 | 0.00 | 0.02 | 0.02 | 55 | 1021.9 |
| 20260507203552 | 66 | 4 | 1.0 | 7.0 | 0.00 | 0.02 | 0.02 | 59 | 1021.6 |
| 20260507203049 | 66 | 114 | 2.0 | 2.0 | 0.00 | 0.02 | 0.02 | 59 | 1021.8 |
| 20260507202544 | 64 | 56 | 0.0 | 5.0 | 0.00 | 0.02 | 0.02 | 58 | 1021.8 |
| 20260507202041 | 65 | 89 | 3.0 | 5.0 | 0.00 | 0.02 | 0.02 | 62 | 1021.9 |
| 20260507201536 | 66 | 85 | 1.0 | 1.0 | 0.00 | 0.02 | 0.02 | 57 | 1021.9 |
| 20260507201033 | 65 | 74 | 0.0 | 1.0 | 0.00 | 0.02 | 0.02 | 60 | 1022.1 |
| 20260507200529 | 63 | 95 | 2.0 | 3.0 | 0.00 | 0.02 | 0.02 | 59 | 1021.9 |
| 20260507200025 | 63 | 118 | 3.0 | 5.0 | 0.00 | 0.02 | 0.02 | 63 | 1022.2 |
| 20260507195522 | 63 | 106 | 1.0 | 3.0 | 0.00 | 0.02 | 0.02 | 59 | 1022.3 |
| 20260507195020 | 62 | 51 | 0.0 | 3.0 | 0.00 | 0.02 | 0.02 | 61 | 1022.4 |
| 20260507194516 | 63 | 23 | 3.0 | 5.0 | 0.00 | 0.02 | 0.02 | 61 | 1022.2 |
| 20260507194012 | 66 | 48 | 0.0 | 2.0 | 0.00 | 0.02 | 0.02 | 59 | 1022.4 |
| 20260507193509 | 64 | 21 | 1.0 | 6.0 | 0.00 | 0.02 | 0.02 | 60 | 1022.5 |
| 20260507193006 | 65 | 38 | 0.0 | 1.0 | 0.00 | 0.02 | 0.02 | 64 | 1022.5 |
| 20260507192502 | 64 | 57 | 0.0 | 0.0 | 0.00 | 0.02 | 0.02 | 58 | 1022.4 |
| 20260507191959 | 62 | 175 | 2.0 | 2.0 | 0.00 | 0.02 | 0.02 | 69 | 1022.5 |
| 20260507191454 | 62 | 36 | 0.0 | 1.0 | 0.00 | 0.02 | 0.02 | 66 | 1022.7 |
| 20260507190952 | 61 | 114 | 1.0 | 2.0 | 0.00 | 0.02 | 0.02 | 63 | 1022.8 |
| 20260507190449 | 62 | 129 | 3.0 | 6.0 | 0.00 | 0.02 | 0.02 | 63 | 1022.8 |
| 20260507185948 | 62 | 29 | 0.0 | 1.0 | 0.00 | 0.02 | 0.02 | 63 | 1022.9 |
| 20260507185445 | 63 | 122 | 1.0 | 3.0 | 0.00 | 0.02 | 0.02 | 62 | 1022.7 |
| 20260507184942 | 63 | 104 | 0.0 | 2.0 | 0.00 | 0.02 | 0.02 | 65 | 1022.9 |
| 20260507184440 | 63 | 54 | 0.0 | 1.0 | 0.00 | 0.02 | 0.02 | 60 | 1023.0 |
| 20260507183938 | 61 | 69 | 1.0 | 2.0 | 0.00 | 0.02 | 0.02 | 63 | 1023.1 |
| 20260507183434 | 62 | 109 | 1.0 | 3.0 | 0.00 | 0.02 | 0.02 | 65 | 1023.0 |
| 20260507182931 | 61 | 77 | 2.0 | 6.0 | 0.00 | 0.02 | 0.02 | 65 | 1022.9 |
| 20260507182427 | 62 | 71 | 1.0 | 2.0 | 0.00 | 0.02 | 0.02 | 64 | 1023.0 |
| 20260507181923 | 63 | 281 | 4.0 | 6.0 | 0.00 | 0.02 | 0.02 | 62 | 1023.1 |
| 20260507181419 | 61 | 59 | 0.0 | 3.0 | 0.00 | 0.02 | 0.02 | 65 | 1023.1 |
| 20260507180916 | 62 | 320 | 3.0 | 3.0 | 0.00 | 0.02 | 0.02 | 65 | 1023.3 |
| 20260507180413 | 62 | 72 | 0.0 | 2.0 | 0.00 | 0.02 | 0.02 | 67 | 1023.5 |
| 20260507175909 | 60 | 46 | 1.0 | 5.0 | 0.00 | 0.02 | 0.02 | 67 | 1023.5 |
| 20260507175406 | 60 | 99 | 1.0 | 2.0 | 0.00 | 0.02 | 0.02 | 67 | 1023.6 |
| 20260507174903 | 60 | 78 | 1.0 | 5.0 | 0.00 | 0.02 | 0.02 | 67 | 1023.6 |
| 20260507174401 | 61 | 56 | 1.0 | 1.0 | 0.00 | 0.02 | 0.02 | 68 | 1023.6 |
| 20260507173858 | 62 | 73 | 0.0 | 2.0 | 0.00 | 0.02 | 0.02 | 67 | 1023.6 |
| 20260507173355 | 62 | 311 | 2.0 | 3.0 | 0.00 | 0.02 | 0.02 | 65 | 1023.4 |